Flight Track Log - Related Links

Times and Time Zones

All times are in EDT time to prevent confusion due to time zone crossing. See the RPA3228 flight status page for this flight to view local times or setup timezone preferences in your user account.

Time Position Orientation Groundspeed Altitude Reporting Facility
EDT Latitude Longitude Course Direction KTS MPH feet Rate Location/Type
Wed 10:33:41 AM 38.8000 -77.0333 61° Northeast 187 215 1,900  Level Potomac TRACON
Wed 10:34:47 AM 38.7667 -76.9667 123° Southeast 236 272 4,500 2,415 Climbing Potomac TRACON
Wed 10:35:00 AM 38.9648 -76.6888 67° East  Level FlightAware Approximate
Wed 10:36:00 AM 39.0121 -76.5757 57° Northeast  Level FlightAware Approximate
Wed 10:36:20 AM 38.8622 -76.9300 17° North 250 288 8,300  Level Washington Center
Wed 10:37:00 AM 39.0560 -76.4599 63° Northeast  Level FlightAware Approximate
Wed 10:37:20 AM 38.9272 -76.8964 22° Northeast 250 288 11,200  Level Washington Center
Wed 10:38:00 AM 39.1039 -76.3465 61° Northeast  Level FlightAware Approximate
Wed 10:38:18 AM 38.9758 -76.8278 48° Northeast 250 288 13,700  Level Washington Center
Wed 10:39:18 AM 39.0061 -76.7217 70° East 275 316 14,700 1,289 Climbing Washington Center
Wed 10:40:19 AM 39.0406 -76.5939 71° East 321 369 16,300 1,884 Climbing Washington Center
Wed 10:41:19 AM 39.0811 -76.4633 68° East 366 421 18,500 2,050 Climbing Washington Center
Wed 10:42:19 AM 39.1194 -76.3272 70° East 387 445 20,400 1,884 Climbing Washington Center
Wed 10:43:20 AM 39.1558 -76.1858 72° East 401 461 22,300 1,361 Climbing Washington Center
Wed 10:44:18 AM 39.1753 -76.0333 81° East 415 478 23,100 958 Climbing Washington Center
Wed 10:45:19 AM 39.2278 -75.9025 63° Northeast 408 470 24,200 1,339 Climbing Washington Center
Wed 10:46:19 AM 39.3092 -75.7875 48° Northeast 415 478 25,800 1,400 Climbing Washington Center
Wed 10:47:19 AM 39.3928 -75.6694 47° Northeast 421 484 27,000 1,240 Climbing Washington Center
Wed 10:48:20 AM 39.4761 -75.5511 48° Northeast 432 497 28,300 1,008 Climbing Washington Center
Wed 10:49:18 AM 39.5592 -75.4328 48° Northeast 438 504 29,000 209 Climbing Washington Center
Wed 10:51:41 AM 39.7617 -75.1350 48° Northeast 469 540 29,000  Level New York Center
Wed 10:52:39 AM 39.8475 -75.0131 47° Northeast 469 540 29,000  Level New York Center
Wed 10:53:39 AM 39.9394 -74.8914 45° Northeast 469 540 29,000  Level New York Center
Wed 10:54:39 AM 40.0350 -74.7778 42° Northeast 463 533 29,000  Level New York Center
Wed 10:55:41 AM 40.1347 -74.6669 40° Northeast 458 527 29,000  Level New York Center
Wed 10:56:39 AM 40.2300 -74.5525 43° Northeast 458 527 29,000  Level New York Center
Wed 10:57:39 AM 40.3256 -74.4325 44° Northeast 466 536 29,000  Level New York Center
Wed 10:58:39 AM 40.4228 -74.3178 42° Northeast 466 536 29,000  Level New York Center
Wed 10:59:40 AM 40.5203 -74.1972 43° Northeast 466 536 29,000  Level New York Center
Wed 11:02:06 AM 40.7483 -73.9250 42° Northeast 472 543 29,000  Level Boston Center
Wed 11:03:06 AM 40.8539 -73.8175 38° Northeast 472 543 29,000  Level Boston Center
Wed 11:04:06 AM 40.9564 -73.7922 11° North 465 535 29,000  Level Boston Center
Wed 11:05:06 AM 41.1125 -73.7983 358° North 451 519 29,000  Level Boston Center
Wed 11:06:06 AM 41.2442 -73.7789 North 462 532 29,000  Level Boston Center
Wed 11:07:06 AM 41.3697 -73.7344 15° North 467 537 29,000  Level Boston Center
Wed 11:08:06 AM 41.4992 -73.7122 North 467 537 29,000  Level Boston Center
Wed 11:09:06 AM 41.6411 -73.6844 North 467 537 29,000  Level Boston Center
Wed 11:10:06 AM 41.7706 -73.6619 North 467 537 29,000  Level Boston Center
Wed 11:11:06 AM 41.9022 -73.6394 North 467 537 29,000  Level Boston Center
Wed 11:12:06 AM 42.0275 -73.6167 North 467 537 29,000  Level Boston Center
Wed 11:13:30 AM 42.1883 -73.5806 North 467 537 29,000  Level Boston Center
Wed 11:14:30 AM 42.3428 -73.5608 North 467 537 29,000  Level Boston Center
Wed 11:15:30 AM 42.4742 -73.5378 North 467 537 29,000  Level Boston Center
Wed 11:16:30 AM 42.5786 -73.5144 North 467 537 29,000  Level Boston Center
Wed 11:17:30 AM 42.7228 -73.4914 North 467 537 29,000  Level Boston Center
Wed 11:18:30 AM 42.8522 -73.4653 North 467 537 29,000  Level Boston Center
Wed 11:19:30 AM 42.9942 -73.4364 North 467 537 29,000 -850 Level Boston Center
Wed 11:20:30 AM 43.1236 -73.4131 North 467 537 27,300 -2,200 Descending Boston Center
Wed 11:21:30 AM 43.2489 -73.3864 North 467 537 24,600 -1,650 Descending Boston Center
Wed 11:22:30 AM 43.3469 -73.3681 North 454 522 24,000 -800 Descending Boston Center
Wed 11:23:30 AM 43.4908 -73.3417 North 441 507 23,000 -1,800 Descending Boston Center
Wed 11:24:30 AM 43.6078 -73.3203 North 428 493 20,400 -2,650 Descending Boston Center
Wed 11:25:30 AM 43.7206 -73.2989 North 421 484 17,700 -2,550 Descending Boston Center
Wed 11:26:30 AM 43.8269 -73.2775 North 403 464 15,300 -2,350 Descending Boston Center
Wed 11:27:30 AM 43.9292 -73.2558 North 381 438 13,000 -2,150 Descending Boston Center
Wed 11:28:30 AM 44.0294 -73.2400 North 370 426 11,000 -1,000 Descending Boston Center
Wed 11:29:30 AM 44.1275 -73.2211 North 365 420 11,000 -400 Level Boston Center
Wed 11:30:30 AM 44.2253 -73.2367 353° North 353 406 10,200 -500 Descending Boston Center
Wed 11:31:30 AM 44.3147 -73.2583 350° North 339 390 10,000 -850 Descending Boston Center
Wed 11:32:30 AM 44.3811 -73.2997 336° Northwest 300 345 8,500 -1,600 Descending Boston Center
Wed 11:33:30 AM 44.4453 -73.3531 329° Northwest 272 313 6,800 -1,800 Descending Boston Center
Wed 11:34:30 AM 44.5072 -73.4036 330° Northwest 272 313 4,900 -1,450 Descending Boston Center
Wed 11:35:30 AM 44.5719 -73.3989 North 235 270 3,900 -950 Descending Boston Center
Wed 11:36:30 AM 44.5975 -73.3264 64° Northeast 168 193 3,000 -650 Descending Boston Center
Wed 11:37:30 AM 44.5583 -73.2761 138° Southeast 118 136 2,600 -700 Descending Boston Center
Wed 11:38:30 AM 44.5253 -73.2350 138° Southeast 123 142 1,600 -1,000 Descending Boston Center

Login

Don't have an account? Register now (free) for customized features, flight alerts, and more!